Sao Jose dos Pinhais, Brazil
Current Conditions -  °F | °C
As of 10:00 PM on Wednesday 22 Oct 2014 (Local Time) from SBCT Reporting Station
Overcast Overcast  
Wind Chill: 57°   Ceiling: 800
Heat Index: 57°   Visibility: 6mi
Dew Point: 54°   Wind: 7mph
Humidity: 88%   Direction: 110°ESE
Pressure: 30.27"   Gusts: NA
Location:  25.57°S, 49.18°W
Report Text: SBCT 230000Z 11006KT 9999 SCT005 BKN008 OVC015 14/12 Q1025
Loading
Personal Weather Stations






























Interactive Weather Map
Tropical Storm Tracking
New forecast layout! Learn more

10-Day Weather Forecast

Advertisements
Track Severe Weather on mobile